Aeroporto :
LOGIN :

Iscrizione | Disclaimer

   EN    FR    IT 

 










Sommario :    VFR   VFR Marginale   IFR   IFR Intensivo   IFR Molto Intensivo
Visibilità : 
Base nubi : 
>= 8 km
>= 3000ft
5 / 8 km
1000 / 3000 ft
1500m / 5 km
500 / 1000 ft
800 / 1500m
200 / 500 ft
< 800m
< 200 ft
Simboli :   Temporali  Nebbia  Neve Forte  Precipitazioni Forti  Vento > 20 kt
SIGMETs :   Varie  Temporali  Ghiacco  Turbolenza  Onda orograficha  Ceneri Vulcaniche






- Altitudine del aeroporto : 218 ft
- Codice IATA : LBG


LFPB - Paris / Le Bourget

ULTIMO METAR :
  • 180330Z AUTO 18014KT 9999 SCT018 SCT023 BKN058 14/11 Q1006 TEMPO 21020G35KT 2500 TSRA SCT012CB

METARs OBSOLETI :
  • 180300Z AUTO 18014KT 9999 SCT018 BKN062 BKN076 14/11 Q1006 BECMG 20015G25KT
  • 180230Z AUTO 19011KT 9999 FEW018 BKN076 OVC094 14/11 Q1007 BECMG 20015G25KT
  • 180200Z AUTO 19013KT 9999 SCT018 BKN092 OVC180 14/11 Q1007 BECMG 20015G25KT
  • 180130Z AUTO 19012KT 9999 FEW020 BKN098 BKN180 14/11 Q1008 BECMG 20015G25KT
  • 180100Z AUTO 19013KT 9999 BKN019 BKN072 BKN094 15/11 Q1008 BECMG 20015G25KT

TAF TAF LFPB
Valido dal 18 a 00 ore il 19 a 00 ore UTC


172300Z 1800/1824 20010KT 9999 BKN015
BECMG 1801/1803 20015G25KT
PROB30
TEMPO 1805/1807 21020G35KT 2500 TSRA SCT012CB
BECMG 1807/1809 CAVOK
TEMPO 1809/1818 -SHRA BKN025TCU
ATIS : +33 1 48 62 43 92



MetMap, La meteo Aeronautica in un colpo d'occhio ! - Copyright ORBIFLY Dicembre 2007 - Disclaimer

ORBIFLY MET'MAP TEAM :

Programmazione e sviluppo : Alexandra Zaïnal
Concezione e sviluppo : Baudouin d'Aumeries
Co-Programmazione e sviluppo : Marc-Olivier Méhu
Supporto tecnico e logistico : Manuel Goepfert
Aiuto per la traduzione : Arnaldo La Scala

Contatto : metmap@orbifly.com




FONTI E CREDITI :

   NOAA